sensor_id;sensor_type;location;lat;lon;timestamp;pressure;altitude;pressure_sealevel;temperature;humidity
75298;BME280;63896;45.990;18.688;2023-03-21T00:02:54;100824.34;;;11.20;75.26
75298;BME280;63896;45.990;18.688;2023-03-21T00:05:57;100827.00;;;11.20;75.09
75298;BME280;63896;45.990;18.688;2023-03-21T00:09:00;100815.31;;;11.27;74.86
75298;BME280;63896;45.990;18.688;2023-03-21T00:12:03;100817.34;;;11.32;74.74
75298;BME280;63896;45.990;18.688;2023-03-21T00:15:10;100813.25;;;11.36;74.43
75298;BME280;63896;45.990;18.688;2023-03-21T00:18:17;100810.59;;;11.36;73.87
75298;BME280;63896;45.990;18.688;2023-03-21T00:21:24;100809.59;;;11.30;73.97
75298;BME280;63896;45.990;18.688;2023-03-21T00:24:50;100811.03;;;11.26;74.18
75298;BME280;63896;45.990;18.688;2023-03-21T00:27:53;100806.13;;;11.30;73.90
75298;BME280;63896;45.990;18.688;2023-03-21T00:31:10;100799.94;;;11.36;74.00
75298;BME280;63896;45.990;18.688;2023-03-21T00:34:12;100800.56;;;11.38;73.47
75298;BME280;63896;45.990;18.688;2023-03-21T00:37:15;100802.84;;;11.34;73.38
75298;BME280;63896;45.990;18.688;2023-03-21T00:40:20;100795.50;;;11.30;73.54
75298;BME280;63896;45.990;18.688;2023-03-21T00:43:34;100792.00;;;11.29;73.36
75298;BME280;63896;45.990;18.688;2023-03-21T00:46:37;100793.25;;;11.27;73.79
75298;BME280;63896;45.990;18.688;2023-03-21T00:50:00;100792.03;;;11.23;73.87
75298;BME280;63896;45.990;18.688;2023-03-21T00:53:03;100787.94;;;11.27;73.43
75298;BME280;63896;45.990;18.688;2023-03-21T00:56:06;100783.22;;;11.29;73.40
75298;BME280;63896;45.990;18.688;2023-03-21T00:59:13;100785.28;;;11.27;73.47
75298;BME280;63896;45.990;18.688;2023-03-21T01:02:18;100782.22;;;11.30;73.48
75298;BME280;63896;45.990;18.688;2023-03-21T01:05:28;100782.22;;;11.30;73.33
75298;BME280;63896;45.990;18.688;2023-03-21T01:08:50;100778.72;;;11.29;73.26
75298;BME280;63896;45.990;18.688;2023-03-21T01:11:55;100783.84;;;11.31;72.90
75298;BME280;63896;45.990;18.688;2023-03-21T01:14:57;100783.22;;;11.29;72.97
75298;BME280;63896;45.990;18.688;2023-03-21T01:18:01;100773.84;;;11.26;73.40
75298;BME280;63896;45.990;18.688;2023-03-21T01:21:07;100774.84;;;11.25;73.74
75298;BME280;63896;45.990;18.688;2023-03-21T01:24:10;100767.94;;;11.18;73.68
75298;BME280;63896;45.990;18.688;2023-03-21T01:27:13;100765.06;;;11.13;74.29
75298;BME280;63896;45.990;18.688;2023-03-21T01:30:17;100772.22;;;11.12;74.05
75298;BME280;63896;45.990;18.688;2023-03-21T01:33:25;100766.31;;;11.10;73.53
75298;BME280;63896;45.990;18.688;2023-03-21T01:36:28;100771.81;;;11.09;73.76
75298;BME280;63896;45.990;18.688;2023-03-21T01:39:36;100764.69;;;11.09;73.85
75298;BME280;63896;45.990;18.688;2023-03-21T01:42:39;100764.72;;;11.03;74.11
75298;BME280;63896;45.990;18.688;2023-03-21T01:49:33;100756.13;;;11.07;72.98
75298;BME280;63896;45.990;18.688;2023-03-21T01:52:47;100758.75;;;11.14;72.22
75298;BME280;63896;45.990;18.688;2023-03-21T01:56:02;100756.50;;;11.17;71.86
75298;BME280;63896;45.990;18.688;2023-03-21T02:02:45;100757.06;;;11.32;70.68
75298;BME280;63896;45.990;18.688;2023-03-21T02:06:35;100752.75;;;11.38;70.00
75298;BME280;63896;45.990;18.688;2023-03-21T02:09:59;100756.22;;;11.38;69.69
75298;BME280;63896;45.990;18.688;2023-03-21T02:13:04;100751.09;;;11.43;69.82
75298;BME280;63896;45.990;18.688;2023-03-21T02:16:40;100748.03;;;11.40;69.50
75298;BME280;63896;45.990;18.688;2023-03-21T02:23:29;100751.91;;;11.44;69.06
75298;BME280;63896;45.990;18.688;2023-03-21T02:26:56;100740.69;;;11.35;69.56
75298;BME280;63896;45.990;18.688;2023-03-21T02:43:51;100752.06;;;11.56;68.08
75298;BME280;63896;45.990;18.688;2023-03-21T02:47:02;100746.97;;;11.54;68.09
75298;BME280;63896;45.990;18.688;2023-03-21T02:50:18;100742.72;;;11.46;68.57
75298;BME280;63896;45.990;18.688;2023-03-21T02:53:28;100755.81;;;11.41;69.05
75298;BME280;63896;45.990;18.688;2023-03-21T02:56:34;100753.13;;;11.48;68.19
75298;BME280;63896;45.990;18.688;2023-03-21T02:59:40;100753.97;;;11.42;68.69
75298;BME280;63896;45.990;18.688;2023-03-21T03:03:00;100754.59;;;11.37;69.01
75298;BME280;63896;45.990;18.688;2023-03-21T03:06:19;100755.22;;;11.33;68.91
75298;BME280;63896;45.990;18.688;2023-03-21T03:13:26;100758.94;;;11.19;70.97
75298;BME280;63896;45.990;18.688;2023-03-21T03:20:57;100752.44;;;11.08;72.15
75298;BME280;63896;45.990;18.688;2023-03-21T03:23:43;100748.97;;;11.01;71.47
75298;BME280;63896;45.990;18.688;2023-03-21T03:30:05;100748.19;;;10.94;72.80
75298;BME280;63896;45.990;18.688;2023-03-21T03:33:10;100753.25;;;11.02;71.45
75298;BME280;63896;45.990;18.688;2023-03-21T03:36:15;100752.44;;;11.02;71.03
75298;BME280;63896;45.990;18.688;2023-03-21T03:40:02;100747.94;;;11.09;70.44
75298;BME280;63896;45.990;18.688;2023-03-21T03:43:16;100741.84;;;11.08;70.16
75298;BME280;63896;45.990;18.688;2023-03-21T03:46:35;100742.00;;;11.20;69.34
75298;BME280;63896;45.990;18.688;2023-03-21T03:49:47;100744.66;;;11.13;69.55
75298;BME280;63896;45.990;18.688;2023-03-21T03:56:25;100746.09;;;11.16;69.32
75298;BME280;63896;45.990;18.688;2023-03-21T03:59:28;100734.88;;;11.07;69.64
75298;BME280;63896;45.990;18.688;2023-03-21T04:02:47;100743.28;;;11.04;69.73
75298;BME280;63896;45.990;18.688;2023-03-21T04:05:54;100744.72;;;11.00;70.22
75298;BME280;63896;45.990;18.688;2023-03-21T04:08:58;100741.00;;;11.01;69.90
75298;BME280;63896;45.990;18.688;2023-03-21T04:12:05;100749.00;;;10.94;70.28
75298;BME280;63896;45.990;18.688;2023-03-21T04:15:09;100758.78;;;10.94;70.53
75298;BME280;63896;45.990;18.688;2023-03-21T04:18:17;100758.41;;;10.90;70.20
75298;BME280;63896;45.990;18.688;2023-03-21T04:21:20;100767.78;;;10.86;70.96
75298;BME280;63896;45.990;18.688;2023-03-21T04:24:23;100766.16;;;10.79;70.94
75298;BME280;63896;45.990;18.688;2023-03-21T04:27:28;100774.53;;;10.82;70.57
75298;BME280;63896;45.990;18.688;2023-03-21T04:30:40;100767.59;;;10.75;71.39
75298;BME280;63896;45.990;18.688;2023-03-21T04:34:01;100763.13;;;10.69;71.40
75298;BME280;63896;45.990;18.688;2023-03-21T04:37:05;100771.06;;;10.62;71.67
75298;BME280;63896;45.990;18.688;2023-03-21T04:40:15;100773.53;;;10.57;71.92
75298;BME280;63896;45.990;18.688;2023-03-21T04:43:21;100775.38;;;10.63;71.61
75298;BME280;63896;45.990;18.688;2023-03-21T04:46:25;100768.66;;;10.61;71.79
75298;BME280;63896;45.990;18.688;2023-03-21T04:49:28;100768.84;;;10.59;72.17
75298;BME280;63896;45.990;18.688;2023-03-21T04:52:32;100769.47;;;10.61;71.79
75298;BME280;63896;45.990;18.688;2023-03-21T04:55:35;100769.47;;;10.61;71.78
75298;BME280;63896;45.990;18.688;2023-03-21T04:58:40;100771.50;;;10.59;71.98
75298;BME280;63896;45.990;18.688;2023-03-21T05:01:44;100767.81;;;10.60;72.36
75298;BME280;63896;45.990;18.688;2023-03-21T05:04:47;100780.28;;;10.60;72.02
75298;BME280;63896;45.990;18.688;2023-03-21T05:07:50;100778.84;;;10.64;71.56
75298;BME280;63896;45.990;18.688;2023-03-21T05:10:52;100779.06;;;10.69;71.44
75298;BME280;63896;45.990;18.688;2023-03-21T05:13:57;100787.41;;;10.79;71.39
75298;BME280;63896;45.990;18.688;2023-03-21T05:17:00;100783.75;;;10.73;71.70
75298;BME280;63896;45.990;18.688;2023-03-21T05:20:09;100784.13;;;10.83;71.41
75298;BME280;63896;45.990;18.688;2023-03-21T05:23:13;100786.59;;;10.91;70.92
75298;BME280;63896;45.990;18.688;2023-03-21T05:26:21;100787.19;;;10.87;70.86
75298;BME280;63896;45.990;18.688;2023-03-21T05:29:46;100786.19;;;10.88;70.71
75298;BME280;63896;45.990;18.688;2023-03-21T05:32:50;100789.00;;;10.93;70.83
75298;BME280;63896;45.990;18.688;2023-03-21T05:35:54;100785.97;;;10.83;71.18
75298;BME280;63896;45.990;18.688;2023-03-21T05:38:59;100776.59;;;10.80;71.03
75298;BME280;63896;45.990;18.688;2023-03-21T05:42:04;100789.84;;;10.93;70.56
75298;BME280;63896;45.990;18.688;2023-03-21T05:45:08;100789.41;;;11.03;70.41
75298;BME280;63896;45.990;18.688;2023-03-21T05:48:12;100791.03;;;11.11;70.13
75298;BME280;63896;45.990;18.688;2023-03-21T05:51:36;100790.25;;;11.04;70.15
75298;BME280;63896;45.990;18.688;2023-03-21T05:54:38;100791.41;;;11.21;69.86
75298;BME280;63896;45.990;18.688;2023-03-21T05:57:42;100789.19;;;11.18;69.55
75298;BME280;63896;45.990;18.688;2023-03-21T06:00:53;100794.09;;;11.14;69.31
75298;BME280;63896;45.990;18.688;2023-03-21T06:04:04;100799.59;;;11.19;69.06
75298;BME280;63896;45.990;18.688;2023-03-21T06:07:11;100804.50;;;11.09;69.60
75298;BME280;63896;45.990;18.688;2023-03-21T06:10:15;100799.59;;;11.19;69.36
75298;BME280;63896;45.990;18.688;2023-03-21T06:13:27;100807.75;;;11.31;69.17
75298;BME280;63896;45.990;18.688;2023-03-21T06:16:35;100803.22;;;11.38;68.18
75298;BME280;63896;45.990;18.688;2023-03-21T06:19:48;100801.75;;;11.48;68.36
75298;BME280;63896;45.990;18.688;2023-03-21T06:23:18;100801.91;;;11.60;67.19
75298;BME280;63896;45.990;18.688;2023-03-21T06:26:22;100789.81;;;11.71;67.65
75298;BME280;63896;45.990;18.688;2023-03-21T06:29:45;100790.13;;;11.94;66.85
75298;BME280;63896;45.990;18.688;2023-03-21T06:32:49;100792.88;;;12.43;64.56
75298;BME280;63896;45.990;18.688;2023-03-21T06:35:57;100794.34;;;12.64;64.54
75298;BME280;63896;45.990;18.688;2023-03-21T06:39:01;100795.81;;;14.65;58.53
75298;BME280;63896;45.990;18.688;2023-03-21T06:42:05;100800.25;;;16.09;53.58
75298;BME280;63896;45.990;18.688;2023-03-21T06:45:09;100803.56;;;17.33;50.65
75298;BME280;63896;45.990;18.688;2023-03-21T06:48:12;100798.56;;;18.07;48.29
75298;BME280;63896;45.990;18.688;2023-03-21T06:51:20;100807.44;;;18.61;45.97
75298;BME280;63896;45.990;18.688;2023-03-21T06:54:37;100802.41;;;18.75;45.03
75298;BME280;63896;45.990;18.688;2023-03-21T06:57:48;100799.91;;;19.47;43.80
75298;BME280;63896;45.990;18.688;2023-03-21T07:00:52;100802.16;;;19.23;43.21
75298;BME280;63896;45.990;18.688;2023-03-21T07:03:56;100803.44;;;19.06;44.20
75298;BME280;63896;45.990;18.688;2023-03-21T07:07:19;100799.78;;;19.27;44.17
75298;BME280;63896;45.990;18.688;2023-03-21T07:11:10;100792.28;;;20.06;41.25
75298;BME280;63896;45.990;18.688;2023-03-21T07:14:17;100804.97;;;20.11;41.31
75298;BME280;63896;45.990;18.688;2023-03-21T07:17:20;100801.53;;;20.76;39.64
75298;BME280;63896;45.990;18.688;2023-03-21T07:20:24;100798.25;;;20.99;38.82
75298;BME280;63896;45.990;18.688;2023-03-21T07:23:29;100792.44;;;21.51;37.61
75298;BME280;63896;45.990;18.688;2023-03-21T07:26:32;100804.50;;;22.28;37.22
75298;BME280;63896;45.990;18.688;2023-03-21T07:29:35;100799.47;;;22.06;36.66
75298;BME280;63896;45.990;18.688;2023-03-21T07:32:38;100810.84;;;22.81;35.51
75298;BME280;63896;45.990;18.688;2023-03-21T07:35:41;100808.00;;;24.29;32.94
75298;BME280;63896;45.990;18.688;2023-03-21T07:38:44;100804.81;;;25.19;30.80
75298;BME280;63896;45.990;18.688;2023-03-21T07:41:48;100803.44;;;24.56;32.18
75298;BME280;63896;45.990;18.688;2023-03-21T07:45:05;100806.94;;;25.63;30.70
75298;BME280;63896;45.990;18.688;2023-03-21T07:48:13;100805.63;;;25.46;31.03
75298;BME280;63896;45.990;18.688;2023-03-21T07:51:16;100797.13;;;27.22;28.18
75298;BME280;63896;45.990;18.688;2023-03-21T07:54:19;100803.41;;;27.88;26.74
75298;BME280;63896;45.990;18.688;2023-03-21T07:57:24;100798.91;;;28.44;26.04
75298;BME280;63896;45.990;18.688;2023-03-21T08:00:28;100798.84;;;28.86;25.52
75298;BME280;63896;45.990;18.688;2023-03-21T08:03:30;100795.19;;;28.05;25.87
75298;BME280;63896;45.990;18.688;2023-03-21T08:06:35;100804.63;;;22.81;33.47
75298;BME280;63896;45.990;18.688;2023-03-21T08:09:41;100815.38;;;24.42;30.99
75298;BME280;63896;45.990;18.688;2023-03-21T08:12:45;100800.97;;;24.92;31.89
75298;BME280;63896;45.990;18.688;2023-03-21T08:15:52;100796.34;;;26.91;27.86
75298;BME280;63896;45.990;18.688;2023-03-21T08:19:03;100789.09;;;27.34;26.71
75298;BME280;63896;45.990;18.688;2023-03-21T08:22:18;100798.25;;;27.30;26.21
75298;BME280;63896;45.990;18.688;2023-03-21T08:25:21;100795.66;;;25.69;28.51
75298;BME280;63896;45.990;18.688;2023-03-21T08:28:24;100791.03;;;27.25;26.31
75298;BME280;63896;45.990;18.688;2023-03-21T08:31:29;100796.75;;;28.66;24.82
75298;BME280;63896;45.990;18.688;2023-03-21T08:34:32;100788.38;;;26.28;27.18
75298;BME280;63896;45.990;18.688;2023-03-21T08:37:39;100791.06;;;25.29;29.14
75298;BME280;63896;45.990;18.688;2023-03-21T08:40:43;100799.78;;;23.54;31.35
75298;BME280;63896;45.990;18.688;2023-03-21T08:43:46;100803.19;;;21.66;35.20
75298;BME280;63896;45.990;18.688;2023-03-21T08:46:49;100805.53;;;21.83;34.54
75298;BME280;63896;45.990;18.688;2023-03-21T08:49:53;100805.09;;;22.20;33.91
75298;BME280;63896;45.990;18.688;2023-03-21T08:53:05;100796.81;;;22.01;34.50
75298;BME280;63896;45.990;18.688;2023-03-21T08:56:11;100798.94;;;23.06;33.03
75298;BME280;63896;45.990;18.688;2023-03-21T08:59:14;100802.28;;;25.77;28.96
75298;BME280;63896;45.990;18.688;2023-03-21T09:02:20;100793.94;;;25.73;29.03
75298;BME280;63896;45.990;18.688;2023-03-21T09:05:24;100803.19;;;25.86;28.56
75298;BME280;63896;45.990;18.688;2023-03-21T09:08:30;100806.69;;;23.84;31.53
75298;BME280;63896;45.990;18.688;2023-03-21T09:11:33;100802.72;;;24.83;30.74
75298;BME280;63896;45.990;18.688;2023-03-21T09:14:36;100801.91;;;25.29;29.48
75298;BME280;63896;45.990;18.688;2023-03-21T09:17:40;100805.03;;;25.63;29.04
75298;BME280;63896;45.990;18.688;2023-03-21T09:20:51;100796.31;;;27.22;26.98
75298;BME280;63896;45.990;18.688;2023-03-21T09:23:55;100800.06;;;28.25;25.16
75298;BME280;63896;45.990;18.688;2023-03-21T09:27:00;100797.25;;;26.86;26.08
75298;BME280;63896;45.990;18.688;2023-03-21T09:30:05;100791.34;;;29.13;23.59
75298;BME280;63896;45.990;18.688;2023-03-21T09:33:09;100792.75;;;29.27;24.17
75298;BME280;63896;45.990;18.688;2023-03-21T09:36:16;100793.09;;;30.38;23.01
75298;BME280;63896;45.990;18.688;2023-03-21T09:39:22;100783.81;;;29.68;23.01
75298;BME280;63896;45.990;18.688;2023-03-21T09:42:39;100783.06;;;29.39;23.25
75298;BME280;63896;45.990;18.688;2023-03-21T09:46:11;100781.41;;;27.76;25.50
75298;BME280;63896;45.990;18.688;2023-03-21T09:49:29;100777.84;;;24.62;29.02
75298;BME280;63896;45.990;18.688;2023-03-21T09:52:58;100780.88;;;24.93;30.03
75298;BME280;63896;45.990;18.688;2023-03-21T09:56:02;100776.09;;;26.17;28.18
75298;BME280;63896;45.990;18.688;2023-03-21T09:59:06;100774.28;;;27.10;26.20
75298;BME280;63896;45.990;18.688;2023-03-21T10:02:33;100775.25;;;29.49;22.93
75298;BME280;63896;45.990;18.688;2023-03-21T10:05:38;100771.59;;;29.45;23.30
75298;BME280;63896;45.990;18.688;2023-03-21T10:08:45;100772.75;;;28.08;23.95
75298;BME280;63896;45.990;18.688;2023-03-21T10:11:53;100775.63;;;23.57;30.80
75298;BME280;63896;45.990;18.688;2023-03-21T10:14:59;100783.78;;;23.76;30.22
75298;BME280;63896;45.990;18.688;2023-03-21T10:27:26;100771.09;;;28.50;23.80
75298;BME280;63896;45.990;18.688;2023-03-21T10:30:40;100775.31;;;29.03;22.71
75298;BME280;63896;45.990;18.688;2023-03-21T10:33:48;100770.25;;;28.67;23.39
75298;BME280;63896;45.990;18.688;2023-03-21T10:42:28;100751.66;;;33.28;19.04
75298;BME280;63896;45.990;18.688;2023-03-21T10:45:34;100757.06;;;34.32;17.74
75298;BME280;63896;45.990;18.688;2023-03-21T10:48:40;100747.53;;;34.95;16.65
75298;BME280;63896;45.990;18.688;2023-03-21T10:51:44;100741.81;;;32.95;18.14
75298;BME280;63896;45.990;18.688;2023-03-21T10:54:49;100744.38;;;32.01;18.67
75298;BME280;63896;45.990;18.688;2023-03-21T10:58:14;100735.56;;;31.68;19.48
75298;BME280;63896;45.990;18.688;2023-03-21T11:01:50;100736.97;;;31.13;19.62
75298;BME280;63896;45.990;18.688;2023-03-21T11:04:54;100733.78;;;31.88;19.08
75298;BME280;63896;45.990;18.688;2023-03-21T11:08:02;100731.69;;;30.72;20.69
75298;BME280;63896;45.990;18.688;2023-03-21T11:11:08;100730.16;;;29.35;21.04
75298;BME280;63896;45.990;18.688;2023-03-21T11:14:36;100732.00;;;29.93;21.01
75298;BME280;63896;45.990;18.688;2023-03-21T11:17:40;100721.09;;;31.31;19.86
75298;BME280;63896;45.990;18.688;2023-03-21T11:20:49;100725.38;;;29.94;21.16
75298;BME280;63896;45.990;18.688;2023-03-21T11:23:54;100711.44;;;29.45;21.18
75298;BME280;63896;45.990;18.688;2023-03-21T11:26:59;100705.22;;;30.31;20.03
75298;BME280;63896;45.990;18.688;2023-03-21T11:30:20;100700.94;;;27.22;23.16
75298;BME280;63896;45.990;18.688;2023-03-21T11:33:32;100700.78;;;26.48;24.39
75298;BME280;63896;45.990;18.688;2023-03-21T11:36:38;100698.06;;;25.32;25.20
75298;BME280;63896;45.990;18.688;2023-03-21T11:39:43;100698.38;;;22.41;29.05
75298;BME280;63896;45.990;18.688;2023-03-21T11:42:49;100689.00;;;22.00;30.36
75298;BME280;63896;45.990;18.688;2023-03-21T11:49:09;100685.91;;;22.16;31.87
75298;BME280;63896;45.990;18.688;2023-03-21T11:52:36;100684.31;;;22.10;31.70
75298;BME280;63896;45.990;18.688;2023-03-21T11:56:03;100676.19;;;22.97;30.37
75298;BME280;63896;45.990;18.688;2023-03-21T12:09:42;100644.00;;;31.88;18.11
75298;BME280;63896;45.990;18.688;2023-03-21T12:16:27;100645.19;;;29.60;18.89
75298;BME280;63896;45.990;18.688;2023-03-21T12:26:31;100644.72;;;23.43;25.19
75298;BME280;63896;45.990;18.688;2023-03-21T12:37:04;100612.38;;;31.11;17.27
75298;BME280;63896;45.990;18.688;2023-03-21T12:47:00;100612.03;;;24.50;24.60
75298;BME280;63896;45.990;18.688;2023-03-21T12:50:14;100605.84;;;26.46;22.47
75298;BME280;63896;45.990;18.688;2023-03-21T12:56:35;100592.53;;;29.01;20.08
75298;BME280;63896;45.990;18.688;2023-03-21T13:00:06;100578.69;;;30.86;18.73
75298;BME280;63896;45.990;18.688;2023-03-21T13:03:47;100588.28;;;28.24;20.85
75298;BME280;63896;45.990;18.688;2023-03-21T13:06:54;100582.56;;;26.01;23.34
75298;BME280;63896;45.990;18.688;2023-03-21T13:10:01;100586.69;;;24.68;25.15
75298;BME280;63896;45.990;18.688;2023-03-21T13:20:21;100567.84;;;25.71;23.50
75298;BME280;63896;45.990;18.688;2023-03-21T13:23:37;100570.00;;;24.34;25.69
75298;BME280;63896;45.990;18.688;2023-03-21T13:26:44;100567.47;;;26.74;22.32
75298;BME280;63896;45.990;18.688;2023-03-21T13:30:02;100556.16;;;29.09;20.52
75298;BME280;63896;45.990;18.688;2023-03-21T13:33:13;100547.56;;;29.73;19.02
75298;BME280;63896;45.990;18.688;2023-03-21T13:36:27;100552.31;;;30.09;18.37
75298;BME280;63896;45.990;18.688;2023-03-21T13:39:30;100551.94;;;29.86;18.02
75298;BME280;63896;45.990;18.688;2023-03-21T13:42:34;100544.97;;;29.02;18.70
75298;BME280;63896;45.990;18.688;2023-03-21T13:45:50;100552.38;;;29.22;18.79
75298;BME280;63896;45.990;18.688;2023-03-21T13:48:58;100548.22;;;26.14;22.14
75298;BME280;63896;45.990;18.688;2023-03-21T13:52:25;100541.78;;;28.12;20.38
75298;BME280;63896;45.990;18.688;2023-03-21T13:59:51;100536.56;;;29.28;20.25
75298;BME280;63896;45.990;18.688;2023-03-21T14:03:15;100535.09;;;30.08;19.18
75298;BME280;63896;45.990;18.688;2023-03-21T14:06:37;100539.00;;;26.23;23.06
75298;BME280;63896;45.990;18.688;2023-03-21T14:09:44;100538.56;;;24.19;26.35
75298;BME280;63896;45.990;18.688;2023-03-21T14:12:48;100534.41;;;23.11;28.01
75298;BME280;63896;45.990;18.688;2023-03-21T14:15:53;100535.78;;;22.71;29.55
75298;BME280;63896;45.990;18.688;2023-03-21T14:19:02;100531.22;;;21.96;30.58
75298;BME280;63896;45.990;18.688;2023-03-21T14:22:12;100528.88;;;20.72;31.87
75298;BME280;63896;45.990;18.688;2023-03-21T14:25:18;100526.94;;;22.85;29.11
75298;BME280;63896;45.990;18.688;2023-03-21T14:28:27;100515.53;;;22.45;29.22
75298;BME280;63896;45.990;18.688;2023-03-21T14:31:34;100516.06;;;22.90;28.28
75298;BME280;63896;45.990;18.688;2023-03-21T14:34:37;100511.41;;;23.46;27.50
75298;BME280;63896;45.990;18.688;2023-03-21T14:37:43;100518.16;;;25.79;24.50
75298;BME280;63896;45.990;18.688;2023-03-21T14:40:48;100512.41;;;23.96;26.67
75298;BME280;63896;45.990;18.688;2023-03-21T14:47:28;100507.28;;;25.79;24.14
75298;BME280;63896;45.990;18.688;2023-03-21T14:53:39;100512.41;;;21.57;29.66
75298;BME280;63896;45.990;18.688;2023-03-21T14:56:49;100503.78;;;20.08;31.56
75298;BME280;63896;45.990;18.688;2023-03-21T14:59:54;100509.22;;;19.67;32.50
75298;BME280;63896;45.990;18.688;2023-03-21T15:02:58;100508.63;;;20.01;32.65
75298;BME280;63896;45.990;18.688;2023-03-21T15:06:02;100501.66;;;19.24;33.30
75298;BME280;63896;45.990;18.688;2023-03-21T15:09:06;100498.97;;;19.29;33.21
75298;BME280;63896;45.990;18.688;2023-03-21T15:12:13;100494.13;;;19.21;33.23
75298;BME280;63896;45.990;18.688;2023-03-21T15:15:16;100502.75;;;19.18;33.85
75298;BME280;63896;45.990;18.688;2023-03-21T15:18:31;100495.75;;;19.17;33.83
75298;BME280;63896;45.990;18.688;2023-03-21T15:21:40;100496.56;;;19.07;34.21
75298;BME280;63896;45.990;18.688;2023-03-21T15:24:49;100500.06;;;19.08;33.44
75298;BME280;63896;45.990;18.688;2023-03-21T15:27:54;100498.41;;;18.91;33.88
75298;BME280;63896;45.990;18.688;2023-03-21T15:30:57;100504.00;;;18.70;34.13
75298;BME280;63896;45.990;18.688;2023-03-21T15:34:02;100497.53;;;18.66;34.61
75298;BME280;63896;45.990;18.688;2023-03-21T15:37:07;100494.84;;;18.61;34.68
75298;BME280;63896;45.990;18.688;2023-03-21T15:40:23;100498.84;;;18.58;34.88
75298;BME280;63896;45.990;18.688;2023-03-21T15:43:37;100489.97;;;18.52;34.11
75298;BME280;63896;45.990;18.688;2023-03-21T15:46:47;100492.84;;;18.36;34.71
75298;BME280;63896;45.990;18.688;2023-03-21T15:53:34;100490.03;;;18.11;35.47
75298;BME280;63896;45.990;18.688;2023-03-21T15:56:37;100498.78;;;17.96;35.47
75298;BME280;63896;45.990;18.688;2023-03-21T15:59:43;100494.19;;;17.86;35.85
75298;BME280;63896;45.990;18.688;2023-03-21T16:02:56;100502.97;;;17.77;36.68
75298;BME280;63896;45.990;18.688;2023-03-21T16:06:15;100500.47;;;17.65;36.46
75298;BME280;63896;45.990;18.688;2023-03-21T16:09:18;100500.31;;;17.45;37.01
75298;BME280;63896;45.990;18.688;2023-03-21T16:12:25;100511.38;;;17.22;37.15
75298;BME280;63896;45.990;18.688;2023-03-21T16:15:28;100511.53;;;17.10;38.46
75298;BME280;63896;45.990;18.688;2023-03-21T16:18:31;100512.50;;;16.99;38.88
75298;BME280;63896;45.990;18.688;2023-03-21T16:21:35;100512.91;;;16.86;39.24
75298;BME280;63896;45.990;18.688;2023-03-21T16:24:39;100510.22;;;16.86;39.43
75298;BME280;63896;45.990;18.688;2023-03-21T16:27:43;100510.56;;;16.67;40.10
75298;BME280;63896;45.990;18.688;2023-03-21T16:30:46;100510.91;;;16.54;40.63
75298;BME280;63896;45.990;18.688;2023-03-21T16:33:50;100513.47;;;16.44;40.80
75298;BME280;63896;45.990;18.688;2023-03-21T16:36:53;100517.25;;;16.27;41.51
75298;BME280;63896;45.990;18.688;2023-03-21T16:39:56;100522.16;;;16.13;41.81
75298;BME280;63896;45.990;18.688;2023-03-21T16:42:59;100523.41;;;16.05;42.20
75298;BME280;63896;45.990;18.688;2023-03-21T16:46:02;100516.72;;;15.86;42.53
75298;BME280;63896;45.990;18.688;2023-03-21T16:49:16;100528.56;;;15.73;42.78
75298;BME280;63896;45.990;18.688;2023-03-21T16:52:19;100531.72;;;15.54;43.42
75298;BME280;63896;45.990;18.688;2023-03-21T16:55:23;100526.41;;;15.42;42.95
75298;BME280;63896;45.990;18.688;2023-03-21T16:58:27;100525.66;;;15.30;43.56
75298;BME280;63896;45.990;18.688;2023-03-21T17:01:31;100540.16;;;15.17;43.56
75298;BME280;63896;45.990;18.688;2023-03-21T17:04:35;100534.06;;;15.05;43.53
75298;BME280;63896;45.990;18.688;2023-03-21T17:07:38;100542.13;;;14.94;43.66
75298;BME280;63896;45.990;18.688;2023-03-21T17:10:41;100544.03;;;14.82;43.91
75298;BME280;63896;45.990;18.688;2023-03-21T17:13:49;100551.38;;;14.74;43.87
75298;BME280;63896;45.990;18.688;2023-03-21T17:16:55;100545.50;;;14.49;44.89
75298;BME280;63896;45.990;18.688;2023-03-21T17:19:58;100553.88;;;14.41;45.23
75298;BME280;63896;45.990;18.688;2023-03-21T17:23:01;100552.28;;;14.28;45.67
75298;BME280;63896;45.990;18.688;2023-03-21T17:26:04;100557.84;;;14.15;45.91
75298;BME280;63896;45.990;18.688;2023-03-21T17:29:11;100552.97;;;14.01;46.49
75298;BME280;63896;45.990;18.688;2023-03-21T17:32:14;100559.81;;;13.85;47.17
75298;BME280;63896;45.990;18.688;2023-03-21T17:35:19;100562.81;;;13.65;47.39
75298;BME280;63896;45.990;18.688;2023-03-21T17:38:23;100557.81;;;13.57;47.89
75298;BME280;63896;45.990;18.688;2023-03-21T17:41:26;100560.09;;;13.42;48.04
75298;BME280;63896;45.990;18.688;2023-03-21T17:44:29;100556.56;;;13.18;48.89
75298;BME280;63896;45.990;18.688;2023-03-21T17:47:32;100559.75;;;13.09;49.73
75298;BME280;63896;45.990;18.688;2023-03-21T17:50:37;100558.22;;;13.01;49.53
75298;BME280;63896;45.990;18.688;2023-03-21T17:53:46;100556.47;;;13.07;49.83
75298;BME280;63896;45.990;18.688;2023-03-21T17:56:49;100564.41;;;12.95;49.87
75298;BME280;63896;45.990;18.688;2023-03-21T17:59:53;100565.44;;;12.94;50.19
75298;BME280;63896;45.990;18.688;2023-03-21T18:02:58;100562.72;;;12.82;50.46
75298;BME280;63896;45.990;18.688;2023-03-21T18:06:01;100573.94;;;12.73;50.64
75298;BME280;63896;45.990;18.688;2023-03-21T18:09:06;100572.47;;;12.59;51.13
75298;BME280;63896;45.990;18.688;2023-03-21T18:12:13;100585.78;;;12.59;51.14